Maersk Pearl — 9VBB6 — position and weather

sailwx.info

Track history (hours):
 
Tides and Currents Weather Stations Pressure Air Temp Water Temp Dewpoint Dewpoint Depression Visibility Wind Speed Wind Dir Waves Ship Positions

Maersk Pearl

Last reported at 2018-Jan-27 22:35 UTC. Time now 2018-Feb-21 03:54 UTC.
Position N 38°55' W 075°10'.
Warning: this ship's position is 24 days out of date.

Length 244 m; draft 8.5 m.

Type: Tanker. MMSI: 563681000.

Date/timePositionNaut miles runAvg speedWind from/ knotsBaromVisibWave heightAir tempDewpointWater temp
2018-Jan-27 22:35N 38°55' W 075°10'2 7.6
2018-Jan-27 22:21N 38°57' W 075°11'3 8.3
2018-Jan-27 22:00N 38°59' W 075°13'0 0.0
2018-Jan-27 14:09N 38°59' W 075°13'0 0.1
2018-Jan-27 13:57N 38°59' W 075°13'0 0.0
2018-Jan-27 13:21N 38°59' W 075°13'0 0.1
2018-Jan-27 11:21N 38°60' W 075°13'0 0.1
2018-Jan-27 10:51N 38°60' W 075°13'0 0.1
2018-Jan-27 10:27N 38°60' W 075°13'0 0.0
2018-Jan-27 09:03N 38°60' W 075°13'0 0.0
2018-Jan-27 08:51N 38°60' W 075°13'0 0.0
2018-Jan-27 08:27N 38°60' W 075°13'0 0.0
2018-Jan-27 07:57N 38°60' W 075°13'0 0.0
2018-Jan-27 07:27N 38°60' W 075°13'0 0.0
2018-Jan-27 06:57N 38°60' W 075°13'0 0.0
2018-Jan-27 05:51N 38°60' W 075°13'0 0.0
2018-Jan-27 05:26N 38°60' W 075°13'0 0.1
2018-Jan-27 04:38N 38°60' W 075°13'0 0.4
2018-Jan-27 04:08N 38°59' W 075°13'0 0.1
2018-Jan-27 03:56N 38°59' W 075°13'0 0.1
2018-Jan-27 03:28N 38°59' W 075°13'0 0.8
2018-Jan-27 03:00N 38°59' W 075°13'4 7.2
2018-Jan-27 02:30N 38°56' W 075°10'4 7.1
2018-Jan-27 02:01N 38°55' W 075°06'714.2
2018-Jan-27 01:31N 39°02' W 075°09'813.9
2018-Jan-27 00:58N 39°08' W 075°14'713.3
2018-Jan-27 00:28N 39°14' W 075°18'613.0
2018-Jan-27 00:00N 39°18' W 075°24'612.2
2018-Jan-26 23:30N 39°23' W 075°29'611.4
2018-Jan-26 23:00N 39°27' W 075°34'510.9
2018-Jan-26 22:30N 39°33' W 075°33'510.2
2018-Jan-26 22:00N 39°38' W 075°35'510.4
2018-Jan-26 21:30N 39°42' W 075°31'510.5
2018-Jan-26 21:00N 39°47' W 075°28'4 7.3
2018-Jan-26 20:30N 39°49' W 075°24'0 0.4
2018-Jan-26 20:00N 39°49' W 075°24'0 0.0
2018-Jan-26 19:30N 39°49' W 075°24'0 0.0
2018-Jan-26 19:00N 39°49' W 075°24'0 0.0
2018-Jan-26 18:30N 39°49' W 075°24'0 0.0
2018-Jan-26 18:00N 39°49' W 075°24'0 0.0
2018-Jan-26 17:30N 39°49' W 075°24'0 0.0
2018-Jan-26 17:00N 39°49' W 075°24'0 0.0
2018-Jan-26 10:05N 39°49' W 075°24'0 0.0
2018-Jan-26 09:47N 39°49' W 075°24'0 0.0
2018-Jan-26 07:29N 39°49' W 075°24'0 0.0
2018-Jan-26 06:53N 39°49' W 075°24'0 0.0
2018-Jan-26 06:29N 39°49' W 075°24'0 0.0
2018-Jan-26 05:59N 39°49' W 075°24'0 0.0
2018-Jan-26 05:29N 39°49' W 075°24'0 0.0
2018-Jan-26 04:59N 39°49' W 075°24'0 0.0
2018-Jan-26 04:29N 39°49' W 075°24'0 0.0
2018-Jan-26 03:53N 39°49' W 075°24'0 0.0
2018-Jan-26 03:29N 39°49' W 075°24'0 0.0
2018-Jan-26 02:59N 39°49' W 075°24'0 0.0
2018-Jan-26 02:29N 39°49' W 075°24'0 0.0
2018-Jan-26 01:59N 39°49' W 075°24'0 0.0
2018-Jan-26 01:29N 39°49' W 075°24'0 0.0
2018-Jan-26 00:59N 39°49' W 075°24'0 0.0
2018-Jan-26 00:29N 39°49' W 075°24'0 0.0
2018-Jan-25 23:59N 39°49' W 075°24'0 0.0
2018-Jan-25 23:29N 39°49' W 075°24'0 0.0
2018-Jan-25 22:59N 39°49' W 075°24'0 0.1
2018-Jan-25 22:30N 39°49' W 075°24'2 3.5
2018-Jan-25 22:00N 39°48' W 075°26'4 8.1
2018-Jan-25 21:30N 39°45' W 075°30'510.7
2018-Jan-25 21:00N 39°40' W 075°32'611.0
2018-Jan-25 20:30N 39°34' W 075°33'612.6
2018-Jan-25 20:00N 39°28' W 075°34'713.0
2018-Jan-25 19:30N 39°23' W 075°28'713.1
2018-Jan-25 19:00N 39°18' W 075°23'612.6
2018-Jan-25 18:30N 39°13' W 075°18'612.7
2018-Jan-25 18:00N 39°08' W 075°13'612.5
2018-Jan-25 17:30N 39°02' W 075°10'  
Track history (hours):
 
Tides and Currents Weather Stations Pressure Air Temp Water Temp Dewpoint Dewpoint Depression Visibility Wind Speed Wind Dir Waves Ship Positions

Maersk Pearl

Last reported at 2018-Jan-27 22:35 UTC. Time now 2018-Feb-21 03:54 UTC.
Position N 38°55' W 075°10'.
Warning: this ship's position is 24 days out of date.

Length 244 m; draft 8.5 m.

Type: Tanker. MMSI: 563681000.

Date/timePositionNaut miles runAvg speedWind from/ knotsBaromVisibWave heightAir tempDewpointWater temp
2018-Jan-27 22:35N 38°55' W 075°10'2 7.6
2018-Jan-27 22:21N 38°57' W 075°11'3 8.3
2018-Jan-27 22:00N 38°59' W 075°13'0 0.0
2018-Jan-27 14:09N 38°59' W 075°13'0 0.1
2018-Jan-27 13:57N 38°59' W 075°13'0 0.0
2018-Jan-27 13:21N 38°59' W 075°13'0 0.1
2018-Jan-27 11:21N 38°60' W 075°13'0 0.1
2018-Jan-27 10:51N 38°60' W 075°13'0 0.1
2018-Jan-27 10:27N 38°60' W 075°13'0 0.0
2018-Jan-27 09:03N 38°60' W 075°13'0 0.0
2018-Jan-27 08:51N 38°60' W 075°13'0 0.0
2018-Jan-27 08:27N 38°60' W 075°13'0 0.0
2018-Jan-27 07:57N 38°60' W 075°13'0 0.0
2018-Jan-27 07:27N 38°60' W 075°13'0 0.0
2018-Jan-27 06:57N 38°60' W 075°13'0 0.0
2018-Jan-27 05:51N 38°60' W 075°13'0 0.0
2018-Jan-27 05:26N 38°60' W 075°13'0 0.1
2018-Jan-27 04:38N 38°60' W 075°13'0 0.4
2018-Jan-27 04:08N 38°59' W 075°13'0 0.1
2018-Jan-27 03:56N 38°59' W 075°13'0 0.1
2018-Jan-27 03:28N 38°59' W 075°13'0 0.8
2018-Jan-27 03:00N 38°59' W 075°13'4 7.2
2018-Jan-27 02:30N 38°56' W 075°10'4 7.1
2018-Jan-27 02:01N 38°55' W 075°06'714.2
2018-Jan-27 01:31N 39°02' W 075°09'813.9
2018-Jan-27 00:58N 39°08' W 075°14'713.3
2018-Jan-27 00:28N 39°14' W 075°18'613.0
2018-Jan-27 00:00N 39°18' W 075°24'612.2
2018-Jan-26 23:30N 39°23' W 075°29'611.4
2018-Jan-26 23:00N 39°27' W 075°34'510.9
2018-Jan-26 22:30N 39°33' W 075°33'510.2
2018-Jan-26 22:00N 39°38' W 075°35'510.4
2018-Jan-26 21:30N 39°42' W 075°31'510.5
2018-Jan-26 21:00N 39°47' W 075°28'4 7.3
2018-Jan-26 20:30N 39°49' W 075°24'0 0.4
2018-Jan-26 20:00N 39°49' W 075°24'0 0.0
2018-Jan-26 19:30N 39°49' W 075°24'0 0.0
2018-Jan-26 19:00N 39°49' W 075°24'0 0.0
2018-Jan-26 18:30N 39°49' W 075°24'0 0.0
2018-Jan-26 18:00N 39°49' W 075°24'0 0.0
2018-Jan-26 17:30N 39°49' W 075°24'0 0.0
2018-Jan-26 17:00N 39°49' W 075°24'0 0.0
2018-Jan-26 10:05N 39°49' W 075°24'0 0.0
2018-Jan-26 09:47N 39°49' W 075°24'0 0.0
2018-Jan-26 07:29N 39°49' W 075°24'0 0.0
2018-Jan-26 06:53N 39°49' W 075°24'0 0.0
2018-Jan-26 06:29N 39°49' W 075°24'0 0.0
2018-Jan-26 05:59N 39°49' W 075°24'0 0.0
2018-Jan-26 05:29N 39°49' W 075°24'0 0.0
2018-Jan-26 04:59N 39°49' W 075°24'0 0.0
2018-Jan-26 04:29N 39°49' W 075°24'0 0.0
2018-Jan-26 03:53N 39°49' W 075°24'0 0.0
2018-Jan-26 03:29N 39°49' W 075°24'0 0.0
2018-Jan-26 02:59N 39°49' W 075°24'0 0.0
2018-Jan-26 02:29N 39°49' W 075°24'0 0.0
2018-Jan-26 01:59N 39°49' W 075°24'0 0.0
2018-Jan-26 01:29N 39°49' W 075°24'0 0.0
2018-Jan-26 00:59N 39°49' W 075°24'0 0.0
2018-Jan-26 00:29N 39°49' W 075°24'0 0.0
2018-Jan-25 23:59N 39°49' W 075°24'0 0.0
2018-Jan-25 23:29N 39°49' W 075°24'0 0.0
2018-Jan-25 22:59N 39°49' W 075°24'0 0.1
2018-Jan-25 22:30N 39°49' W 075°24'2 3.5
2018-Jan-25 22:00N 39°48' W 075°26'4 8.1
2018-Jan-25 21:30N 39°45' W 075°30'510.7
2018-Jan-25 21:00N 39°40' W 075°32'611.0
2018-Jan-25 20:30N 39°34' W 075°33'612.6
2018-Jan-25 20:00N 39°28' W 075°34'713.0
2018-Jan-25 19:30N 39°23' W 075°28'713.1
2018-Jan-25 19:00N 39°18' W 075°23'612.6
2018-Jan-25 18:30N 39°13' W 075°18'612.7
2018-Jan-25 18:00N 39°08' W 075°13'612.5
2018-Jan-25 17:30N 39°02' W 075°10'  

Dump ship's entire track history